Time;durP1;ratioP1;P1;durP2;ratioP2;P2;SDS_P1;SDS_P2;PMS_P1;PMS_P2;Temp;Humidity;BMP_temperature;BMP_pressure;BME280_temperature;BME280_humidity;BME280_pressure;Samples;Min_cycle;Max_cycle;Signal;HPM_P1;HPM_P2
2020/12/13 00:03:42;;;;;;;;;18.00;18.00;;;;;;;;12512496;28;8870;-55
2020/12/13 00:09:43;;;;;;;;;21.25;16.25;;;;;;;;12512503;28;8864;-54
2020/12/13 00:15:44;;;;;;;;;24.50;22.25;;;;;;;;12514210;28;8885;-54
2020/12/13 00:21:53;;;;;;;;;17.25;17.00;;;;;;;;12512148;28;8876;-54
2020/12/13 00:27:55;;;;;;;;;18.00;16.25;;;;;;;;12512641;28;8849;-54
2020/12/13 00:33:56;;;;;;;;;19.00;18.00;;;;;;;;12512436;28;8857;-54
2020/12/13 00:39:58;;;;;;;;;20.00;15.75;;;;;;;;12511771;28;8897;-52
2020/12/13 00:45:59;;;;;;;;;21.00;20.75;;;;;;;;12512662;28;8849;-54
2020/12/13 00:52:03;;;;;;;;;18.75;18.25;;;;;;;;12510706;28;8830;-54
2020/12/13 00:58:05;;;;;;;;;21.75;19.25;;;;;;;;12510410;28;8850;-52
2020/12/13 01:04:07;;;;;;;;;18.75;14.75;;;;;;;;12511389;28;8852;-53
2020/12/13 01:10:09;;;;;;;;;21.00;16.75;;;;;;;;12509330;28;8844;-53
2020/12/13 01:16:15;;;;;;;;;18.25;16.25;;;;;;;;12511027;28;8843;-53
2020/12/13 01:22:17;;;;;;;;;18.00;17.00;;;;;;;;12509302;28;8831;-54
2020/12/13 01:28:18;;;;;;;;;21.75;20.25;;;;;;;;12509736;28;8962;-54
2020/12/13 01:34:20;;;;;;;;;24.00;21.50;;;;;;;;12510536;28;8863;-54
2020/12/13 01:40:21;;;;;;;;;21.25;16.00;;;;;;;;12509774;28;8977;-53
2020/12/13 01:46:23;;;;;;;;;22.50;22.50;;;;;;;;12510364;28;8846;-54
2020/12/13 01:58:52;;;;;;;;;21.00;16.50;;;;;;;;12509495;28;8847;-54
2020/12/13 02:04:55;;;;;;;;;21.75;18.50;;;;;;;;12507902;28;8855;-54
2020/12/13 02:10:57;;;;;;;;;24.25;22.00;;;;;;;;12507157;28;8848;-55
2020/12/13 02:16:59;;;;;;;;;22.25;19.75;;;;;;;;12508737;28;8943;-54
2020/12/13 02:23:07;;;;;;;;;24.75;19.50;;;;;;;;12506179;28;9583;-53
2020/12/13 02:29:08;;;;;;;;;33.75;29.75;;;;;;;;12508404;28;8916;-54
2020/12/13 02:35:11;;;;;;;;;27.25;19.25;;;;;;;;12506139;28;8917;-54
2020/12/13 02:41:12;;;;;;;;;25.75;21.50;;;;;;;;12505867;28;9596;-53
2020/12/13 02:47:14;;;;;;;;;21.75;19.00;;;;;;;;12506888;28;8874;-56
2020/12/13 02:53:15;;;;;;;;;21.00;15.25;;;;;;;;12497241;28;9036;-52
2020/12/13 02:59:16;;;;;;;;;19.75;17.75;;;;;;;;12505849;28;8924;-54
2020/12/13 03:05:18;;;;;;;;;20.25;19.00;;;;;;;;12504656;28;8848;-54
2020/12/13 03:11:20;;;;;;;;;22.00;19.00;;;;;;;;12505138;28;9578;-55
2020/12/13 03:17:22;;;;;;;;;22.75;22.00;;;;;;;;12488352;28;9675;-53
2020/12/13 03:23:26;;;;;;;;;21.50;18.75;;;;;;;;12503837;28;9526;-54
2020/12/13 03:29:28;;;;;;;;;19.00;17.00;;;;;;;;12506168;28;8832;-53
2020/12/13 03:35:29;;;;;;;;;16.25;15.00;;;;;;;;12503449;28;8863;-54
2020/12/13 03:41:31;;;;;;;;;18.00;16.50;;;;;;;;12504089;28;8839;-54
2020/12/13 03:47:32;;;;;;;;;17.25;15.50;;;;;;;;12505208;28;8843;-53
2020/12/13 03:53:34;;;;;;;;;19.00;18.50;;;;;;;;12503955;28;9617;-54
2020/12/13 03:59:35;;;;;;;;;19.50;16.00;;;;;;;;12504801;28;8994;-55
2020/12/13 04:05:36;;;;;;;;;22.50;20.00;;;;;;;;12503643;28;8862;-55
2020/12/13 04:11:38;;;;;;;;;25.00;20.25;;;;;;;;12503195;28;8965;-55
2020/12/13 04:17:40;;;;;;;;;24.25;20.00;;;;;;;;12503770;28;8873;-54
2020/12/13 04:23:42;;;;;;;;;21.00;19.50;;;;;;;;12502615;28;8854;-53
2020/12/13 04:29:43;;;;;;;;;20.00;19.00;;;;;;;;12503621;28;8854;-53
2020/12/13 04:35:44;;;;;;;;;20.50;19.25;;;;;;;;12502950;28;8908;-53
2020/12/13 04:41:46;;;;;;;;;23.00;19.75;;;;;;;;12502474;28;8854;-52
2020/12/13 04:48:02;;;;;;;;;21.00;18.00;;;;;;;;12508647;28;8885;-53
2020/12/13 04:54:05;;;;;;;;;19.00;19.00;;;;;;;;12510938;28;8872;-54
2020/12/13 05:00:07;;;;;;;;;22.75;19.25;;;;;;;;12512031;28;8860;-55
2020/12/13 05:06:08;;;;;;;;;14.75;14.50;;;;;;;;12510761;28;8860;-54
2020/12/13 05:12:10;;;;;;;;;24.50;19.00;;;;;;;;12510175;28;9407;-54
2020/12/13 05:18:11;;;;;;;;;20.25;17.25;;;;;;;;12511985;28;8830;-53
2020/12/13 05:24:14;;;;;;;;;15.25;15.25;;;;;;;;12509091;28;9095;-55
2020/12/13 05:30:26;;;;;;;;;15.00;15.00;;;;;;;;12502231;28;8828;-55
2020/12/13 05:36:30;;;;;;;;;13.50;12.25;;;;;;;;12508914;28;8840;-55
2020/12/13 05:42:38;;;;;;;;;13.25;8.00;;;;;;;;12508969;28;8852;-54
2020/12/13 05:54:46;;;;;;;;;17.75;16.00;;;;;;;;12508083;28;8956;-54
2020/12/13 06:00:48;;;;;;;;;12.25;11.25;;;;;;;;12507850;28;8873;-53
2020/12/13 06:06:55;;;;;;;;;16.25;16.25;;;;;;;;12507465;28;8884;-54
2020/12/13 06:13:00;;;;;;;;;15.25;11.75;;;;;;;;12508187;28;8845;-53
2020/12/13 06:19:04;;;;;;;;;16.50;14.00;;;;;;;;12486787;28;9581;-54
2020/12/13 06:25:06;;;;;;;;;17.00;14.50;;;;;;;;12506793;28;8923;-54
2020/12/13 06:31:07;;;;;;;;;17.25;15.00;;;;;;;;12508262;28;8867;-54
2020/12/13 06:37:10;;;;;;;;;14.75;14.25;;;;;;;;12505556;28;8860;-53
2020/12/13 06:43:11;;;;;;;;;16.25;15.00;;;;;;;;12505353;28;8847;-54
2020/12/13 06:49:15;;;;;;;;;17.25;14.50;;;;;;;;12507173;28;8876;-54
2020/12/13 06:55:18;;;;;;;;;17.00;13.25;;;;;;;;12505158;28;9012;-53
2020/12/13 07:01:21;;;;;;;;;16.25;13.50;;;;;;;;12506456;28;8862;-53
2020/12/13 07:07:26;;;;;;;;;12.75;12.75;;;;;;;;12504857;28;9435;-52
2020/12/13 07:13:30;;;;;;;;;16.50;14.50;;;;;;;;12504018;28;8878;-55
2020/12/13 07:19:33;;;;;;;;;12.50;12.50;;;;;;;;12505361;28;8878;-53
2020/12/13 07:25:35;;;;;;;;;16.00;13.00;;;;;;;;12503269;28;8860;-53
2020/12/13 07:31:36;;;;;;;;;11.50;11.50;;;;;;;;12505279;28;8846;-57
2020/12/13 07:37:40;;;;;;;;;17.50;12.50;;;;;;;;12505084;28;8874;-54
2020/12/13 07:44:02;;;;;;;;;14.75;13.00;;;;;;;;12503322;28;8837;-55
2020/12/13 07:50:05;;;;;;;;;16.25;13.50;;;;;;;;12503566;28;9038;-55
2020/12/13 07:56:06;;;;;;;;;16.00;13.00;;;;;;;;12503578;28;8956;-54
2020/12/13 08:02:11;;;;;;;;;11.00;10.00;;;;;;;;12505143;28;8834;-53
2020/12/13 08:08:12;;;;;;;;;18.50;18.50;;;;;;;;12500448;28;8953;-55
2020/12/13 08:14:13;;;;;;;;;19.50;19.00;;;;;;;;12503820;28;9581;-54
2020/12/13 08:20:15;;;;;;;;;20.50;19.75;;;;;;;;12504962;28;8878;-55
2020/12/13 08:26:17;;;;;;;;;20.50;20.50;;;;;;;;12511441;28;8836;-55
2020/12/13 08:32:22;;;;;;;;;29.50;28.00;;;;;;;;12511921;28;8996;-54
2020/12/13 08:38:24;;;;;;;;;26.50;24.50;;;;;;;;12529598;28;8872;-53
2020/12/13 08:44:32;;;;;;;;;33.75;29.75;;;;;;;;12561822;28;8853;-53
2020/12/13 08:50:39;;;;;;;;;51.25;43.75;;;;;;;;12554600;28;8859;-52
2020/12/13 08:56:42;;;;;;;;;50.25;42.75;;;;;;;;12560043;28;8833;-52
2020/12/13 09:02:58;;;;;;;;;36.25;36.00;;;;;;;;12561060;28;8838;-53
2020/12/13 09:09:12;;;;;;;;;39.50;35.50;;;;;;;;12559984;28;8880;-54
2020/12/13 09:15:16;;;;;;;;;37.75;32.75;;;;;;;;12560635;28;8980;-53
2020/12/13 09:21:17;;;;;;;;;36.00;34.75;;;;;;;;12559039;28;8956;-54
2020/12/13 09:27:19;;;;;;;;;40.00;39.00;;;;;;;;12558893;28;8933;-54
2020/12/13 09:33:20;;;;;;;;;36.25;32.50;;;;;;;;12558777;28;8853;-53
2020/12/13 09:39:22;;;;;;;;;26.50;24.00;;;;;;;;12536420;28;8877;-51
2020/12/13 09:45:24;;;;;;;;;32.25;27.25;;;;;;;;12559086;28;8837;-52
2020/12/13 09:51:25;;;;;;;;;32.50;31.25;;;;;;;;12542156;28;8871;-53
2020/12/13 09:57:27;;;;;;;;;39.00;33.25;;;;;;;;12557483;28;8859;-57
2020/12/13 10:03:28;;;;;;;;;38.50;31.00;;;;;;;;12558044;28;8844;-55
2020/12/13 10:09:29;;;;;;;;;31.75;30.00;;;;;;;;12556869;28;8982;-55
2020/12/13 10:15:31;;;;;;;;;41.00;35.25;;;;;;;;12559043;28;8927;-55
2020/12/13 10:21:34;;;;;;;;;43.50;40.75;;;;;;;;12556241;28;8946;-55
2020/12/13 10:27:35;;;;;;;;;30.00;29.50;;;;;;;;12547865;28;9013;-55
2020/12/13 10:33:41;;;;;;;;;35.25;32.50;;;;;;;;12556563;28;8853;-55
2020/12/13 10:39:42;;;;;;;;;33.00;29.50;;;;;;;;12556282;28;8956;-53
2020/12/13 10:45:44;;;;;;;;;39.50;36.25;;;;;;;;12538116;28;8833;-53
2020/12/13 10:51:54;;;;;;;;;37.75;35.50;;;;;;;;12553975;28;8857;-56
2020/12/13 10:57:55;;;;;;;;;38.75;35.25;;;;;;;;12554924;28;8869;-55
2020/12/13 11:03:57;;;;;;;;;35.50;33.50;;;;;;;;12554918;28;8964;-57
2020/12/13 11:09:58;;;;;;;;;42.00;34.00;;;;;;;;12553939;28;8853;-53
2020/12/13 11:16:00;;;;;;;;;36.25;33.50;;;;;;;;12554720;28;8860;-53
2020/12/13 11:22:02;;;;;;;;;36.00;31.50;;;;;;;;12553435;28;8841;-55
2020/12/13 11:28:05;;;;;;;;;44.00;38.50;;;;;;;;12553612;28;8841;-55
2020/12/13 11:34:06;;;;;;;;;43.00;37.75;;;;;;;;12553220;28;8995;-55
2020/12/13 11:40:08;;;;;;;;;44.25;39.00;;;;;;;;12552813;28;8852;-56
2020/12/13 11:46:10;;;;;;;;;37.75;31.50;;;;;;;;12554409;28;8876;-55
2020/12/13 11:52:12;;;;;;;;;41.50;40.50;;;;;;;;12552966;28;9610;-54
2020/12/13 11:58:13;;;;;;;;;38.25;33.75;;;;;;;;12559883;28;8830;-54
2020/12/13 12:04:15;;;;;;;;;47.50;35.75;;;;;;;;12563342;28;8865;-56
2020/12/13 12:10:17;;;;;;;;;45.00;40.75;;;;;;;;12554356;28;8845;-53
2020/12/13 12:16:26;;;;;;;;;32.00;26.50;;;;;;;;12563486;28;8852;-54
2020/12/13 12:22:28;;;;;;;;;46.75;42.00;;;;;;;;12562434;28;9569;-57
2020/12/13 12:28:29;;;;;;;;;65.00;52.50;;;;;;;;12561716;28;8841;-54
2020/12/13 12:34:30;;;;;;;;;59.75;47.25;;;;;;;;12561486;28;8973;-56
2020/12/13 12:40:32;;;;;;;;;50.50;43.50;;;;;;;;12542257;28;8857;-55
2020/12/13 12:46:33;;;;;;;;;50.00;39.50;;;;;;;;12562035;28;9030;-54
2020/12/13 12:52:34;;;;;;;;;44.50;40.50;;;;;;;;12563110;28;8877;-52
2020/12/13 12:58:44;;;;;;;;;42.50;37.00;;;;;;;;12561868;28;8874;-55
2020/12/13 13:04:57;;;;;;;;;38.50;35.50;;;;;;;;12561326;28;8865;-56
2020/12/13 13:11:33;;;;;;;;;45.00;39.25;;;;;;;;12559051;28;8848;-54
2020/12/13 13:17:29;;;;;;;;;45.00;40.75;;;;;;;;12558741;28;8849;-55
2020/12/13 13:23:31;;;;;;;;;42.50;38.00;;;;;;;;12528474;28;8855;-55
2020/12/13 13:29:33;;;;;;;;;38.75;35.00;;;;;;;;12542606;28;8858;-56
2020/12/13 13:35:35;;;;;;;;;32.75;30.00;;;;;;;;12558442;28;8972;-55
2020/12/13 13:41:37;;;;;;;;;38.25;38.25;;;;;;;;12558881;28;8836;-58
2020/12/13 13:53:48;;;;;;;;;43.00;37.75;;;;;;;;12557820;28;8833;-52
2020/12/13 13:59:51;;;;;;;;;43.25;39.00;;;;;;;;12559679;28;8841;-54
2020/12/13 14:05:57;;;;;;;;;38.50;36.25;;;;;;;;12557188;28;8895;-54
2020/12/13 14:11:59;;;;;;;;;49.25;41.75;;;;;;;;12558453;28;9475;-56
2020/12/13 14:18:02;;;;;;;;;45.75;41.25;;;;;;;;12557788;28;9641;-55
2020/12/13 14:24:04;;;;;;;;;42.50;39.25;;;;;;;;12556410;28;8860;-54
2020/12/13 14:30:05;;;;;;;;;45.25;41.00;;;;;;;;12558762;28;8853;-54
2020/12/13 14:36:06;;;;;;;;;48.00;43.50;;;;;;;;12554935;28;8921;-56
2020/12/13 14:42:08;;;;;;;;;48.25;42.00;;;;;;;;12555721;28;8849;-56
2020/12/13 14:48:09;;;;;;;;;19.50;15.75;;;;;;;;12555442;28;8857;-56
2020/12/13 14:54:12;;;;;;;;;38.75;35.50;;;;;;;;12555170;28;8841;-56
2020/12/13 15:00:19;;;;;;;;;41.00;34.75;;;;;;;;12547914;28;8841;-56
2020/12/13 15:06:22;;;;;;;;;31.00;30.75;;;;;;;;12553956;28;8837;-54
2020/12/13 15:12:24;;;;;;;;;31.50;24.50;;;;;;;;12555698;28;8837;-54
2020/12/13 15:18:29;;;;;;;;;31.00;28.00;;;;;;;;12537383;28;8849;-56
2020/12/13 15:24:31;;;;;;;;;36.75;34.25;;;;;;;;12553760;28;8853;-54
2020/12/13 15:30:32;;;;;;;;;39.25;36.25;;;;;;;;12554562;28;8856;-55
2020/12/13 15:36:34;;;;;;;;;40.00;37.00;;;;;;;;12553260;28;8895;-54
2020/12/13 15:42:36;;;;;;;;;53.50;43.00;;;;;;;;12555218;28;8853;-55
2020/12/13 15:48:37;;;;;;;;;59.75;45.00;;;;;;;;12553989;28;9628;-56
2020/12/13 15:54:39;;;;;;;;;60.25;50.00;;;;;;;;12552926;28;8962;-57
2020/12/13 16:00:41;;;;;;;;;57.25;47.00;;;;;;;;12554728;28;8863;-56
2020/12/13 16:06:47;;;;;;;;;63.00;48.25;;;;;;;;12552062;28;8848;-53
2020/12/13 16:12:48;;;;;;;;;58.75;45.75;;;;;;;;12527098;28;8837;-55
2020/12/13 16:18:50;;;;;;;;;53.50;45.25;;;;;;;;12535455;28;8833;-54
2020/12/13 16:24:51;;;;;;;;;49.00;43.50;;;;;;;;12550651;28;8891;-53
2020/12/13 16:30:53;;;;;;;;;53.00;45.75;;;;;;;;12553300;28;8857;-56
2020/12/13 16:36:55;;;;;;;;;50.25;42.50;;;;;;;;12551132;28;8881;-55
2020/12/13 16:49:15;;;;;;;;;56.25;45.25;;;;;;;;12561130;28;8865;-54
2020/12/13 16:55:17;;;;;;;;;54.00;43.75;;;;;;;;12560147;28;8962;-55
2020/12/13 17:01:18;;;;;;;;;50.75;43.50;;;;;;;;12553114;28;8887;-56
2020/12/13 17:07:21;;;;;;;;;50.75;42.25;;;;;;;;12559816;28;8872;-54
2020/12/13 17:13:28;;;;;;;;;62.25;45.75;;;;;;;;12561610;28;8830;-54
2020/12/13 17:19:30;;;;;;;;;57.75;47.00;;;;;;;;12559354;28;8833;-53
2020/12/13 17:25:33;;;;;;;;;43.75;40.25;;;;;;;;12558656;28;8862;-54
2020/12/13 17:31:35;;;;;;;;;60.75;46.00;;;;;;;;12559978;28;9866;-55
2020/12/13 17:37:38;;;;;;;;;56.75;43.50;;;;;;;;12558661;28;8838;-55
2020/12/13 17:43:52;;;;;;;;;41.00;38.50;;;;;;;;12559144;28;9688;-52
2020/12/13 17:56:34;;;;;;;;;47.25;40.75;;;;;;;;12558613;28;8821;-55
2020/12/13 18:02:38;;;;;;;;;54.00;43.50;;;;;;;;12558134;28;8941;-54
2020/12/13 18:08:39;;;;;;;;;61.50;47.50;;;;;;;;12556433;28;8855;-55
2020/12/13 18:14:40;;;;;;;;;50.00;44.00;;;;;;;;12558706;28;8839;-56
2020/12/13 18:20:42;;;;;;;;;51.25;43.75;;;;;;;;12555775;28;8850;-56
2020/12/13 18:26:43;;;;;;;;;43.25;41.00;;;;;;;;12557909;28;8840;-54
2020/12/13 18:32:45;;;;;;;;;37.75;34.50;;;;;;;;12556113;28;8872;-55
2020/12/13 18:38:47;;;;;;;;;44.25;40.75;;;;;;;;12554941;28;9551;-55
2020/12/13 18:44:49;;;;;;;;;52.50;44.25;;;;;;;;12556607;28;8852;-52
2020/12/13 18:50:50;;;;;;;;;41.25;33.50;;;;;;;;12554799;28;8924;-54
2020/12/13 18:56:52;;;;;;;;;36.75;30.00;;;;;;;;12555808;28;8875;-56
2020/12/13 19:09:05;;;;;;;;;30.75;30.75;;;;;;;;12553763;28;8867;-55
2020/12/13 19:15:07;;;;;;;;;56.50;44.50;;;;;;;;12555859;28;8856;-57
2020/12/13 19:21:09;;;;;;;;;49.00;44.50;;;;;;;;12553952;28;8852;-54
2020/12/13 19:27:11;;;;;;;;;52.00;44.50;;;;;;;;12555400;28;8843;-55
2020/12/13 19:33:13;;;;;;;;;55.75;48.25;;;;;;;;12552693;28;8936;-54
2020/12/13 19:39:14;;;;;;;;;78.00;63.00;;;;;;;;12552785;28;9412;-55
2020/12/13 19:45:16;;;;;;;;;47.75;42.50;;;;;;;;12555358;28;8848;-53
2020/12/13 19:51:21;;;;;;;;;46.75;42.75;;;;;;;;12552421;28;8856;-53
2020/12/13 19:57:23;;;;;;;;;51.25;43.50;;;;;;;;12561818;28;8854;-54
2020/12/13 20:03:24;;;;;;;;;43.75;37.00;;;;;;;;12552354;28;8860;-56
2020/12/13 20:09:27;;;;;;;;;47.75;40.75;;;;;;;;12552492;28;8857;-55
2020/12/13 21:25:17;;;;;;;;;33.00;29.00;;;;;;;;12560710;28;8852;-53
2020/12/13 22:26:43;;;;;;;;;37.00;32.00;;;;;;;;12556429;28;8860;-54
2020/12/13 22:32:45;;;;;;;;;37.25;35.50;;;;;;;;12557276;28;8868;-54
2020/12/13 22:38:46;;;;;;;;;48.75;41.00;;;;;;;;12554965;28;8864;-54
2020/12/13 22:44:48;;;;;;;;;43.50;39.50;;;;;;;;12555189;28;8871;-54
2020/12/13 22:50:49;;;;;;;;;43.75;39.50;;;;;;;;12556193;28;8902;-55
2020/12/13 22:56:51;;;;;;;;;39.50;37.25;;;;;;;;12554558;28;8855;-54
2020/12/13 23:02:52;;;;;;;;;36.25;33.50;;;;;;;;12555887;28;8886;-55
2020/12/13 23:08:55;;;;;;;;;41.00;34.00;;;;;;;;12553945;28;8863;-55
2020/12/13 23:15:02;;;;;;;;;41.75;32.75;;;;;;;;12546515;28;8849;-53
2020/12/13 23:21:03;;;;;;;;;38.25;33.25;;;;;;;;12555862;28;8844;-55
2020/12/13 23:27:05;;;;;;;;;29.00;25.50;;;;;;;;12552935;28;8865;-53
2020/12/13 23:33:06;;;;;;;;;33.50;29.75;;;;;;;;12554534;28;8829;-55
2020/12/13 23:39:09;;;;;;;;;35.25;32.50;;;;;;;;12552859;28;8888;-54
2020/12/13 23:45:13;;;;;;;;;36.50;30.50;;;;;;;;12552638;28;8952;-52
2020/12/13 23:51:14;;;;;;;;;36.75;26.75;;;;;;;;12553199;28;8903;-55
2020/12/13 23:57:16;;;;;;;;;32.25;28.75;;;;;;;;12552243;28;8909;-54
